Monsenhor Hipolito, Brazil
Current Conditions -  °F | °C
As of 6:00 PM on Wednesday 26 Nov 2014 (Local Time) from SBJU Reporting Station
Scattered Clouds Scattered Clouds  
Wind Chill: 91°   Ceiling: Unl
Heat Index: 95°   Visibility: 6mi
Dew Point: 68°   Wind: 0mph
Humidity: 46%   Direction: NA
Pressure: 29.91"   Gusts: NA
Location:  7°S, 41.03°W
Report Text: SBJU 262100Z 00000KT 9999 SCT020 33/20 Q1013
Loading
Personal Weather Stations






























Interactive Weather Map New forecast layout! Learn more

10-Day Weather Forecast

Advertisements
Track Severe Weather on mobile